sensor_id;sensor_type;location;lat;lon;timestamp;pressure;altitude;pressure_sealevel;temperature;humidity
40982;BME280;26708;50.304;19.028;2023-05-21T00:00:03;98808.78;;;16.70;63.03
40982;BME280;26708;50.304;19.028;2023-05-21T00:02:16;98829.88;;;16.73;63.13
40982;BME280;26708;50.304;19.028;2023-05-21T00:04:24;98693.63;;;15.81;63.10
40982;BME280;26708;50.304;19.028;2023-05-21T00:06:29;98676.41;;;15.64;63.35
40982;BME280;26708;50.304;19.028;2023-05-21T00:08:35;98797.03;;;16.43;63.42
40982;BME280;26708;50.304;19.028;2023-05-21T00:10:41;98786.78;;;16.30;63.51
40982;BME280;26708;50.304;19.028;2023-05-21T00:12:45;98639.63;;;15.56;63.64
40982;BME280;26708;50.304;19.028;2023-05-21T00:14:49;98841.66;;;16.57;63.98
40982;BME280;26708;50.304;19.028;2023-05-21T00:16:55;98759.06;;;16.10;63.89
40982;BME280;26708;50.304;19.028;2023-05-21T00:18:59;98818.72;;;16.59;63.81
40982;BME280;26708;50.304;19.028;2023-05-21T00:21:06;98824.81;;;16.62;63.82
40982;BME280;26708;50.304;19.028;2023-05-21T00:23:13;98746.16;;;15.96;63.76
40982;BME280;26708;50.304;19.028;2023-05-21T00:25:18;98820.34;;;16.66;63.82
40982;BME280;26708;50.304;19.028;2023-05-21T00:27:23;98822.06;;;16.67;63.68
40982;BME280;26708;50.304;19.028;2023-05-21T00:29:28;98821.94;;;16.73;63.60
40982;BME280;26708;50.304;19.028;2023-05-21T00:31:33;98825.44;;;16.75;63.58
40982;BME280;26708;50.304;19.028;2023-05-21T00:33:37;98751.28;;;16.41;63.46
40982;BME280;26708;50.304;19.028;2023-05-21T00:35:42;98703.47;;;16.16;63.38
40982;BME280;26708;50.304;19.028;2023-05-21T00:37:49;98761.84;;;16.43;63.20
40982;BME280;26708;50.304;19.028;2023-05-21T00:39:54;98618.25;;;15.68;63.38
40982;BME280;26708;50.304;19.028;2023-05-21T00:41:59;98468.78;;;14.88;63.34
40982;BME280;26708;50.304;19.028;2023-05-21T00:44:20;98587.09;;;15.46;63.29
40982;BME280;26708;50.304;19.028;2023-05-21T00:46:35;98501.66;;;15.13;63.05
40982;BME280;26708;50.304;19.028;2023-05-21T00:48:42;98556.28;;;15.48;62.91
40982;BME280;26708;50.304;19.028;2023-05-21T00:50:49;98748.16;;;16.62;62.80
40982;BME280;26708;50.304;19.028;2023-05-21T00:52:57;98658.13;;;15.97;62.91
40982;BME280;26708;50.304;19.028;2023-05-21T00:57:25;98670.38;;;16.00;62.63
40982;BME280;26708;50.304;19.028;2023-05-21T00:59:33;98804.50;;;17.02;62.83
40982;BME280;26708;50.304;19.028;2023-05-21T01:01:39;98658.38;;;16.23;62.47
40982;BME280;26708;50.304;19.028;2023-05-21T01:03:46;98740.16;;;16.65;62.61
40982;BME280;26708;50.304;19.028;2023-05-21T01:05:52;98635.31;;;15.93;62.73
40982;BME280;26708;50.304;19.028;2023-05-21T01:08:04;98605.63;;;15.82;62.88
40982;BME280;26708;50.304;19.028;2023-05-21T01:10:11;98597.16;;;15.67;62.81
40982;BME280;26708;50.304;19.028;2023-05-21T01:12:17;98675.16;;;16.20;62.91
40982;BME280;26708;50.304;19.028;2023-05-21T01:14:24;98794.28;;;16.87;62.97
40982;BME280;26708;50.304;19.028;2023-05-21T01:16:29;98572.19;;;15.43;63.06
40982;BME280;26708;50.304;19.028;2023-05-21T01:18:51;98776.34;;;16.62;63.17
40982;BME280;26708;50.304;19.028;2023-05-21T01:21:13;98569.34;;;15.54;63.08
40982;BME280;26708;50.304;19.028;2023-05-21T01:23:36;98612.63;;;15.83;63.26
40982;BME280;26708;50.304;19.028;2023-05-21T01:25:56;98649.06;;;16.07;63.11
40982;BME280;26708;50.304;19.028;2023-05-21T01:28:15;98725.78;;;16.40;63.24
40982;BME280;26708;50.304;19.028;2023-05-21T01:30:39;98624.72;;;15.95;63.26
40982;BME280;26708;50.304;19.028;2023-05-21T01:33:03;98604.69;;;15.85;62.97
40982;BME280;26708;50.304;19.028;2023-05-21T01:35:34;98677.38;;;16.38;62.90
40982;BME280;26708;50.304;19.028;2023-05-21T01:38:04;98736.63;;;16.65;62.93
40982;BME280;26708;50.304;19.028;2023-05-21T01:40:38;98729.88;;;16.53;63.16
40982;BME280;26708;50.304;19.028;2023-05-21T01:42:50;98557.88;;;15.55;63.12
40982;BME280;26708;50.304;19.028;2023-05-21T01:44:57;98766.41;;;16.73;63.23
40982;BME280;26708;50.304;19.028;2023-05-21T01:47:08;98650.00;;;16.05;63.21
40982;BME280;26708;50.304;19.028;2023-05-21T01:49:16;98632.66;;;15.93;63.16
40982;BME280;26708;50.304;19.028;2023-05-21T01:51:24;98780.50;;;16.75;63.31
40982;BME280;26708;50.304;19.028;2023-05-21T01:53:30;98773.47;;;16.72;63.47
40982;BME280;26708;50.304;19.028;2023-05-21T01:55:38;98773.47;;;16.72;63.49
40982;BME280;26708;50.304;19.028;2023-05-21T01:57:43;98584.81;;;15.69;63.26
40982;BME280;26708;50.304;19.028;2023-05-21T01:59:48;98683.09;;;16.20;63.30
40982;BME280;26708;50.304;19.028;2023-05-21T02:01:54;98767.38;;;16.69;63.02
40982;BME280;26708;50.304;19.028;2023-05-21T02:03:58;98753.34;;;16.67;62.96
40982;BME280;26708;50.304;19.028;2023-05-21T02:06:03;98761.13;;;16.73;63.06
40982;BME280;26708;50.304;19.028;2023-05-21T02:08:08;98694.28;;;16.31;62.92
40982;BME280;26708;50.304;19.028;2023-05-21T02:10:15;98723.88;;;16.45;62.99
40982;BME280;26708;50.304;19.028;2023-05-21T02:12:22;98545.84;;;15.42;62.86
40982;BME280;26708;50.304;19.028;2023-05-21T02:14:30;98599.16;;;15.57;62.77
40982;BME280;26708;50.304;19.028;2023-05-21T02:16:42;98559.81;;;15.47;62.74
40982;BME280;26708;50.304;19.028;2023-05-21T02:18:48;98530.56;;;15.18;62.79
40982;BME280;26708;50.304;19.028;2023-05-21T02:20:58;98527.63;;;15.31;62.75
40982;BME280;26708;50.304;19.028;2023-05-21T02:23:03;98491.50;;;14.94;62.76
40982;BME280;26708;50.304;19.028;2023-05-21T02:25:09;98785.28;;;16.58;62.61
40982;BME280;26708;50.304;19.028;2023-05-21T02:27:16;98693.94;;;16.09;62.68
40982;BME280;26708;50.304;19.028;2023-05-21T02:29:24;98700.56;;;16.26;62.87
40982;BME280;26708;50.304;19.028;2023-05-21T02:31:29;98653.69;;;15.98;62.72
40982;BME280;26708;50.304;19.028;2023-05-21T02:33:41;98644.06;;;15.95;62.66
40982;BME280;26708;50.304;19.028;2023-05-21T02:35:47;98695.69;;;16.10;62.65
40982;BME280;26708;50.304;19.028;2023-05-21T02:37:52;98554.75;;;15.38;62.58
40982;BME280;26708;50.304;19.028;2023-05-21T02:40:00;98688.31;;;16.23;62.64
40982;BME280;26708;50.304;19.028;2023-05-21T02:42:07;98746.47;;;16.58;62.79
40982;BME280;26708;50.304;19.028;2023-05-21T02:44:12;98705.56;;;16.38;62.78
40982;BME280;26708;50.304;19.028;2023-05-21T02:46:22;98441.53;;;14.88;62.45
40982;BME280;26708;50.304;19.028;2023-05-21T02:48:27;98700.25;;;16.39;62.70
40982;BME280;26708;50.304;19.028;2023-05-21T02:50:32;98720.41;;;16.43;62.58
40982;BME280;26708;50.304;19.028;2023-05-21T02:52:37;98753.25;;;16.70;62.55
40982;BME280;26708;50.304;19.028;2023-05-21T02:54:41;98750.75;;;16.64;62.66
40982;BME280;26708;50.304;19.028;2023-05-21T02:56:47;98598.72;;;15.77;62.52
40982;BME280;26708;50.304;19.028;2023-05-21T02:58:53;98685.69;;;16.22;62.49
40982;BME280;26708;50.304;19.028;2023-05-21T03:00:57;98748.28;;;16.58;62.62
40982;BME280;26708;50.304;19.028;2023-05-21T03:03:05;98509.34;;;15.22;62.46
40982;BME280;26708;50.304;19.028;2023-05-21T03:05:11;98470.16;;;15.06;62.53
40982;BME280;26708;50.304;19.028;2023-05-21T03:07:36;98742.88;;;16.62;62.54
40982;BME280;26708;50.304;19.028;2023-05-21T03:09:42;98747.19;;;16.65;62.59
40982;BME280;26708;50.304;19.028;2023-05-21T03:11:48;98600.44;;;15.78;62.51
40982;BME280;26708;50.304;19.028;2023-05-21T03:13:53;98692.38;;;16.36;62.56
40982;BME280;26708;50.304;19.028;2023-05-21T03:15:59;98533.53;;;15.42;62.53
40982;BME280;26708;50.304;19.028;2023-05-21T03:18:09;98621.69;;;15.72;62.76
40982;BME280;26708;50.304;19.028;2023-05-21T03:20:14;98697.16;;;16.23;62.82
40982;BME280;26708;50.304;19.028;2023-05-21T03:22:19;98583.31;;;15.57;62.90
40982;BME280;26708;50.304;19.028;2023-05-21T03:24:39;98553.06;;;15.34;63.02
40982;BME280;26708;50.304;19.028;2023-05-21T03:27:00;98542.63;;;15.28;63.23
40982;BME280;26708;50.304;19.028;2023-05-21T03:29:21;98704.22;;;16.20;63.20
40982;BME280;26708;50.304;19.028;2023-05-21T03:31:41;98738.09;;;16.41;63.18
40982;BME280;26708;50.304;19.028;2023-05-21T03:34:05;98689.47;;;16.12;63.11
40982;BME280;26708;50.304;19.028;2023-05-21T03:36:11;98569.59;;;15.42;63.32
40982;BME280;26708;50.304;19.028;2023-05-21T03:38:15;98606.28;;;15.52;63.12
40982;BME280;26708;50.304;19.028;2023-05-21T03:40:22;98511.50;;;15.04;62.99
40982;BME280;26708;50.304;19.028;2023-05-21T03:42:28;98599.97;;;15.59;63.01
40982;BME280;26708;50.304;19.028;2023-05-21T03:44:32;98693.72;;;16.18;63.02
40982;BME280;26708;50.304;19.028;2023-05-21T03:47:00;98682.38;;;16.13;62.85
40982;BME280;26708;50.304;19.028;2023-05-21T03:49:13;98735.34;;;16.44;62.77
40982;BME280;26708;50.304;19.028;2023-05-21T03:51:18;98734.41;;;16.47;62.70
40982;BME280;26708;50.304;19.028;2023-05-21T03:53:23;98548.81;;;15.27;62.75
40982;BME280;26708;50.304;19.028;2023-05-21T03:55:29;98738.06;;;16.43;62.71
40982;BME280;26708;50.304;19.028;2023-05-21T03:57:33;98611.25;;;15.66;62.64
40982;BME280;26708;50.304;19.028;2023-05-21T03:59:38;98732.91;;;16.37;62.64
40982;BME280;26708;50.304;19.028;2023-05-21T04:01:43;98620.19;;;15.60;62.71
40982;BME280;26708;50.304;19.028;2023-05-21T04:03:50;98486.56;;;14.77;62.69
40982;BME280;26708;50.304;19.028;2023-05-21T04:06:00;98499.41;;;14.94;62.68
40982;BME280;26708;50.304;19.028;2023-05-21T04:08:06;98736.59;;;16.30;62.78
40982;BME280;26708;50.304;19.028;2023-05-21T04:10:11;98742.66;;;16.33;62.76
40982;BME280;26708;50.304;19.028;2023-05-21T04:12:16;98736.41;;;16.37;62.73
40982;BME280;26708;50.304;19.028;2023-05-21T04:14:23;98591.13;;;15.62;62.79
40982;BME280;26708;50.304;19.028;2023-05-21T04:16:28;98694.56;;;16.19;62.54
40982;BME280;26708;50.304;19.028;2023-05-21T04:18:34;98736.16;;;16.48;62.43
40982;BME280;26708;50.304;19.028;2023-05-21T04:20:40;98741.34;;;16.52;62.35
40982;BME280;26708;50.304;19.028;2023-05-21T04:22:49;98703.13;;;16.30;61.96
40982;BME280;26708;50.304;19.028;2023-05-21T04:24:53;98703.03;;;16.33;61.64
40982;BME280;26708;50.304;19.028;2023-05-21T04:27:05;98608.38;;;15.76;61.87
40982;BME280;26708;50.304;19.028;2023-05-21T04:29:10;98741.44;;;16.48;62.05
40982;BME280;26708;50.304;19.028;2023-05-21T04:31:18;98719.25;;;16.18;61.98
40982;BME280;26708;50.304;19.028;2023-05-21T04:33:24;98680.63;;;16.13;61.73
40982;BME280;26708;50.304;19.028;2023-05-21T04:35:30;98711.06;;;16.30;61.46
40982;BME280;26708;50.304;19.028;2023-05-21T04:37:35;98743.16;;;16.49;61.65
40982;BME280;26708;50.304;19.028;2023-05-21T04:39:45;98746.44;;;16.60;61.11
40982;BME280;26708;50.304;19.028;2023-05-21T04:41:50;98743.66;;;16.66;61.01
40982;BME280;26708;50.304;19.028;2023-05-21T04:43:54;98739.03;;;16.75;60.80
40982;BME280;26708;50.304;19.028;2023-05-21T04:46:03;98684.56;;;16.32;60.41
40982;BME280;26708;50.304;19.028;2023-05-21T04:48:08;98741.31;;;16.90;60.21
40982;BME280;26708;50.304;19.028;2023-05-21T04:50:15;98636.56;;;16.15;59.53
40982;BME280;26708;50.304;19.028;2023-05-21T04:52:21;98748.19;;;16.97;59.50
40982;BME280;26708;50.304;19.028;2023-05-21T04:56:52;98713.28;;;16.83;58.38
40982;BME280;26708;50.304;19.028;2023-05-21T04:58:57;98742.50;;;17.12;58.32
40982;BME280;26708;50.304;19.028;2023-05-21T05:01:17;98736.69;;;16.98;58.08
40982;BME280;26708;50.304;19.028;2023-05-21T05:03:37;98739.59;;;17.23;56.88
40982;BME280;26708;50.304;19.028;2023-05-21T05:05:57;98748.31;;;17.26;56.67
40982;BME280;26708;50.304;19.028;2023-05-21T05:08:20;98744.75;;;17.27;56.46
40982;BME280;26708;50.304;19.028;2023-05-21T05:10:42;98745.47;;;17.34;56.61
40982;BME280;26708;50.304;19.028;2023-05-21T05:13:01;98755.75;;;17.44;56.64
40982;BME280;26708;50.304;19.028;2023-05-21T05:15:21;98516.25;;;16.02;55.90
40982;BME280;26708;50.304;19.028;2023-05-21T05:17:41;98485.69;;;15.94;55.89
40982;BME280;26708;50.304;19.028;2023-05-21T05:20:04;98745.69;;;17.60;55.65
40982;BME280;26708;50.304;19.028;2023-05-21T05:22:25;98748.19;;;17.64;55.61
40982;BME280;26708;50.304;19.028;2023-05-21T05:24:46;98757.72;;;17.71;55.40
40982;BME280;26708;50.304;19.028;2023-05-21T05:27:08;98726.25;;;17.59;55.05
40982;BME280;26708;50.304;19.028;2023-05-21T05:29:28;98688.69;;;17.45;54.66
40982;BME280;26708;50.304;19.028;2023-05-21T05:31:47;98758.31;;;17.81;54.47
40982;BME280;26708;50.304;19.028;2023-05-21T05:34:07;98765.44;;;17.79;54.59
40982;BME280;26708;50.304;19.028;2023-05-21T05:36:27;98736.03;;;17.57;54.44
40982;BME280;26708;50.304;19.028;2023-05-21T05:38:47;98595.81;;;16.93;54.96
40982;BME280;26708;50.304;19.028;2023-05-21T05:41:07;98752.94;;;17.84;54.69
40982;BME280;26708;50.304;19.028;2023-05-21T05:43:29;98744.16;;;17.82;54.28
40982;BME280;26708;50.304;19.028;2023-05-21T05:45:50;98746.75;;;17.83;54.14
40982;BME280;26708;50.304;19.028;2023-05-21T05:48:09;98748.50;;;17.84;54.33
40982;BME280;26708;50.304;19.028;2023-05-21T05:50:31;98752.81;;;17.88;54.39
40982;BME280;26708;50.304;19.028;2023-05-21T05:52:50;98749.13;;;17.92;54.29
40982;BME280;26708;50.304;19.028;2023-05-21T05:55:10;98750.69;;;17.99;54.49
40982;BME280;26708;50.304;19.028;2023-05-21T05:57:29;98736.47;;;18.03;54.07
40982;BME280;26708;50.304;19.028;2023-05-21T05:59:55;98748.47;;;18.15;53.82
40982;BME280;26708;50.304;19.028;2023-05-21T06:02:16;98632.66;;;17.31;53.79
40982;BME280;26708;50.304;19.028;2023-05-21T06:04:35;98706.50;;;18.01;53.46
40982;BME280;26708;50.304;19.028;2023-05-21T06:06:55;98584.47;;;17.19;53.20
40982;BME280;26708;50.304;19.028;2023-05-21T06:09:15;98750.59;;;18.31;53.05
40982;BME280;26708;50.304;19.028;2023-05-21T06:11:37;98750.69;;;18.30;52.52
40982;BME280;26708;50.304;19.028;2023-05-21T06:13:57;98544.47;;;17.00;52.95
40982;BME280;26708;50.304;19.028;2023-05-21T06:16:20;98735.47;;;18.36;52.77
40982;BME280;26708;50.304;19.028;2023-05-21T06:18:45;98741.44;;;18.43;53.45
40982;BME280;26708;50.304;19.028;2023-05-21T06:21:05;98503.56;;;17.12;53.15
40982;BME280;26708;50.304;19.028;2023-05-21T06:23:25;98736.50;;;18.60;52.62
40982;BME280;26708;50.304;19.028;2023-05-21T06:25:53;98672.94;;;18.29;52.35
40982;BME280;26708;50.304;19.028;2023-05-21T06:28:00;98726.38;;;18.72;52.17
40982;BME280;26708;50.304;19.028;2023-05-21T06:30:06;98727.19;;;18.74;51.97
40982;BME280;26708;50.304;19.028;2023-05-21T06:32:15;98723.53;;;18.78;51.86
40982;BME280;26708;50.304;19.028;2023-05-21T06:34:21;98727.91;;;18.79;52.01
40982;BME280;26708;50.304;19.028;2023-05-21T06:36:28;98730.94;;;18.93;51.78
40982;BME280;26708;50.304;19.028;2023-05-21T06:38:34;98731.66;;;18.98;51.96
40982;BME280;26708;50.304;19.028;2023-05-21T06:40:38;98711.22;;;19.02;52.00
40982;BME280;26708;50.304;19.028;2023-05-21T06:42:47;98718.84;;;19.12;51.50
40982;BME280;26708;50.304;19.028;2023-05-21T06:45:28;98714.03;;;19.23;52.11
40982;BME280;26708;50.304;19.028;2023-05-21T06:47:40;98711.16;;;19.29;51.49
40982;BME280;26708;50.304;19.028;2023-05-21T06:49:44;98696.88;;;19.33;51.36
40982;BME280;26708;50.304;19.028;2023-05-21T06:51:50;98707.09;;;19.44;51.18
40982;BME280;26708;50.304;19.028;2023-05-21T06:53:55;98700.63;;;19.51;51.20
40982;BME280;26708;50.304;19.028;2023-05-21T06:55:59;98665.84;;;19.34;51.32
40982;BME280;26708;50.304;19.028;2023-05-21T06:58:14;98700.84;;;19.69;50.51
40982;BME280;26708;50.304;19.028;2023-05-21T07:00:18;98693.56;;;19.74;50.19
40982;BME280;26708;50.304;19.028;2023-05-21T07:02:23;98501.34;;;18.60;50.25
40982;BME280;26708;50.304;19.028;2023-05-21T07:04:46;98694.78;;;19.90;50.40
40982;BME280;26708;50.304;19.028;2023-05-21T07:07:05;98697.13;;;19.98;49.77
40982;BME280;26708;50.304;19.028;2023-05-21T07:09:27;98550.31;;;19.24;49.43
40982;BME280;26708;50.304;19.028;2023-05-21T07:11:46;98631.72;;;19.71;48.45
40982;BME280;26708;50.304;19.028;2023-05-21T07:14:08;98694.88;;;20.10;48.05
40982;BME280;26708;50.304;19.028;2023-05-21T07:16:28;98602.31;;;19.52;48.27
40982;BME280;26708;50.304;19.028;2023-05-21T07:18:48;98692.72;;;20.20;48.16
40982;BME280;26708;50.304;19.028;2023-05-21T07:20:56;98671.59;;;20.17;48.04
40982;BME280;26708;50.304;19.028;2023-05-21T07:23:01;98686.94;;;20.32;48.02
40982;BME280;26708;50.304;19.028;2023-05-21T07:25:07;98559.38;;;19.64;47.48
40982;BME280;26708;50.304;19.028;2023-05-21T07:27:13;98683.72;;;20.45;47.79
40982;BME280;26708;50.304;19.028;2023-05-21T07:29:18;98582.28;;;19.90;47.79
40982;BME280;26708;50.304;19.028;2023-05-21T07:31:22;98677.09;;;20.55;47.07
40982;BME280;26708;50.304;19.028;2023-05-21T07:33:29;98690.00;;;20.65;47.00
40982;BME280;26708;50.304;19.028;2023-05-21T07:35:34;98648.84;;;20.53;47.08
40982;BME280;26708;50.304;19.028;2023-05-21T07:37:41;98673.84;;;20.70;46.26
40982;BME280;26708;50.304;19.028;2023-05-21T07:39:47;98659.78;;;20.66;46.40
40982;BME280;26708;50.304;19.028;2023-05-21T07:41:51;98684.00;;;20.82;45.83
40982;BME280;26708;50.304;19.028;2023-05-21T07:43:57;98683.66;;;20.89;46.27
40982;BME280;26708;50.304;19.028;2023-05-21T07:46:03;98681.47;;;20.99;46.19
40982;BME280;26708;50.304;19.028;2023-05-21T07:48:08;98640.41;;;20.84;45.61
40982;BME280;26708;50.304;19.028;2023-05-21T07:50:21;98561.50;;;20.42;44.90
40982;BME280;26708;50.304;19.028;2023-05-21T07:52:27;98677.97;;;21.18;44.43
40982;BME280;26708;50.304;19.028;2023-05-21T07:54:34;98674.25;;;21.22;44.10
40982;BME280;26708;50.304;19.028;2023-05-21T07:56:39;98679.22;;;21.31;44.15
40982;BME280;26708;50.304;19.028;2023-05-21T07:59:07;98679.94;;;21.35;43.29
40982;BME280;26708;50.304;19.028;2023-05-21T08:01:27;98504.81;;;20.40;43.48
40982;BME280;26708;50.304;19.028;2023-05-21T08:03:48;98658.50;;;21.38;43.58
40982;BME280;26708;50.304;19.028;2023-05-21T08:06:07;98665.00;;;21.51;42.76
40982;BME280;26708;50.304;19.028;2023-05-21T08:08:27;98650.75;;;21.52;42.59
40982;BME280;26708;50.304;19.028;2023-05-21T08:10:50;98616.75;;;21.38;42.74
40982;BME280;26708;50.304;19.028;2023-05-21T08:13:12;98572.44;;;21.16;42.17
40982;BME280;26708;50.304;19.028;2023-05-21T08:15:32;98527.22;;;20.96;41.88
40982;BME280;26708;50.304;19.028;2023-05-21T08:17:52;98669.47;;;21.89;41.13
40982;BME280;26708;50.304;19.028;2023-05-21T08:20:13;98660.66;;;21.87;40.39
40982;BME280;26708;50.304;19.028;2023-05-21T08:22:35;98444.28;;;20.66;40.66
40982;BME280;26708;50.304;19.028;2023-05-21T08:24:55;98671.75;;;21.98;40.06
40982;BME280;26708;50.304;19.028;2023-05-21T08:27:17;98667.41;;;21.95;40.01
40982;BME280;26708;50.304;19.028;2023-05-21T08:29:37;98666.47;;;21.96;39.71
40982;BME280;26708;50.304;19.028;2023-05-21T08:31:56;98663.66;;;21.99;40.21
40982;BME280;26708;50.304;19.028;2023-05-21T08:34:16;98663.47;;;22.04;39.51
40982;BME280;26708;50.304;19.028;2023-05-21T08:36:45;98532.03;;;21.06;39.56
40982;BME280;26708;50.304;19.028;2023-05-21T08:39:25;98664.38;;;22.03;38.91
40982;BME280;26708;50.304;19.028;2023-05-21T08:41:45;98665.81;;;22.10;38.77
40982;BME280;26708;50.304;19.028;2023-05-21T08:44:11;98525.72;;;21.29;38.73
40982;BME280;26708;50.304;19.028;2023-05-21T08:46:32;98666.31;;;22.18;38.54
40982;BME280;26708;50.304;19.028;2023-05-21T08:48:54;98658.25;;;22.19;38.58
40982;BME280;26708;50.304;19.028;2023-05-21T08:51:15;98659.75;;;22.25;38.31
40982;BME280;26708;50.304;19.028;2023-05-21T08:53:38;98549.72;;;21.66;38.15
40982;BME280;26708;50.304;19.028;2023-05-21T08:56:00;98664.88;;;22.29;37.45
40982;BME280;26708;50.304;19.028;2023-05-21T08:58:35;98667.31;;;22.34;37.24
40982;BME280;26708;50.304;19.028;2023-05-21T09:00:58;98465.97;;;21.14;37.49
40982;BME280;26708;50.304;19.028;2023-05-21T09:03:19;98643.63;;;22.09;37.57
40982;BME280;26708;50.304;19.028;2023-05-21T09:05:40;98652.84;;;22.39;38.07
40982;BME280;26708;50.304;19.028;2023-05-21T09:07:55;98547.19;;;21.81;37.61
40982;BME280;26708;50.304;19.028;2023-05-21T09:10:29;98656.78;;;22.49;37.59
40982;BME280;26708;50.304;19.028;2023-05-21T09:12:39;98658.28;;;22.55;37.79
40982;BME280;26708;50.304;19.028;2023-05-21T09:14:46;98581.28;;;22.12;37.90
40982;BME280;26708;50.304;19.028;2023-05-21T09:16:58;98601.41;;;22.00;36.79
40982;BME280;26708;50.304;19.028;2023-05-21T09:19:02;98663.69;;;22.53;37.46
40982;BME280;26708;50.304;19.028;2023-05-21T09:21:27;98591.63;;;22.18;37.50
40982;BME280;26708;50.304;19.028;2023-05-21T09:24:00;98558.56;;;21.85;37.76
40982;BME280;26708;50.304;19.028;2023-05-21T09:26:09;98597.56;;;22.24;37.99
40982;BME280;26708;50.304;19.028;2023-05-21T09:28:17;98567.28;;;22.07;37.77
40982;BME280;26708;50.304;19.028;2023-05-21T09:30:26;98586.94;;;22.23;37.91
40982;BME280;26708;50.304;19.028;2023-05-21T09:32:34;98659.75;;;22.62;37.50
40982;BME280;26708;50.304;19.028;2023-05-21T09:34:40;98652.50;;;22.64;37.25
40982;BME280;26708;50.304;19.028;2023-05-21T09:36:46;98657.72;;;22.67;37.11
40982;BME280;26708;50.304;19.028;2023-05-21T09:38:52;98631.75;;;22.52;36.95
40982;BME280;26708;50.304;19.028;2023-05-21T09:41:03;98659.44;;;22.68;36.66
40982;BME280;26708;50.304;19.028;2023-05-21T09:43:12;98594.50;;;22.32;36.87
40982;BME280;26708;50.304;19.028;2023-05-21T09:45:19;98587.50;;;22.29;36.80
40982;BME280;26708;50.304;19.028;2023-05-21T09:47:27;98604.66;;;22.42;37.20
40982;BME280;26708;50.304;19.028;2023-05-21T09:49:49;98651.69;;;22.80;36.98
40982;BME280;26708;50.304;19.028;2023-05-21T09:52:08;98581.56;;;22.41;35.49
40982;BME280;26708;50.304;19.028;2023-05-21T09:54:30;98634.88;;;22.78;35.64
40982;BME280;26708;50.304;19.028;2023-05-21T09:56:51;98641.25;;;22.93;36.69
40982;BME280;26708;50.304;19.028;2023-05-21T09:59:11;98648.19;;;22.97;35.71
40982;BME280;26708;50.304;19.028;2023-05-21T10:01:32;98626.66;;;22.83;34.68
40982;BME280;26708;50.304;19.028;2023-05-21T10:03:54;98600.84;;;22.65;35.10
40982;BME280;26708;50.304;19.028;2023-05-21T10:06:17;98598.59;;;22.74;34.44
40982;BME280;26708;50.304;19.028;2023-05-21T10:08:44;98599.31;;;22.78;35.66
40982;BME280;26708;50.304;19.028;2023-05-21T10:10:52;98543.03;;;22.47;34.43
40982;BME280;26708;50.304;19.028;2023-05-21T10:12:59;98644.03;;;23.08;34.46
40982;BME280;26708;50.304;19.028;2023-05-21T10:15:12;98653.66;;;23.11;35.01
40982;BME280;26708;50.304;19.028;2023-05-21T10:17:22;98591.69;;;22.87;34.69
40982;BME280;26708;50.304;19.028;2023-05-21T10:19:30;98601.03;;;22.96;34.54
40982;BME280;26708;50.304;19.028;2023-05-21T10:21:40;98607.00;;;23.01;34.33
40982;BME280;26708;50.304;19.028;2023-05-21T10:23:47;98501.41;;;22.26;33.64
40982;BME280;26708;50.304;19.028;2023-05-21T10:25:54;98631.03;;;23.18;33.51
40982;BME280;26708;50.304;19.028;2023-05-21T10:28:15;98627.56;;;23.16;33.84
40982;BME280;26708;50.304;19.028;2023-05-21T10:30:36;98593.94;;;22.95;34.06
40982;BME280;26708;50.304;19.028;2023-05-21T10:32:57;98621.69;;;23.09;34.51
40982;BME280;26708;50.304;19.028;2023-05-21T10:35:18;98626.00;;;23.12;34.08
40982;BME280;26708;50.304;19.028;2023-05-21T10:37:42;98641.00;;;23.14;33.98
40982;BME280;26708;50.304;19.028;2023-05-21T10:40:02;98626.09;;;23.10;33.22
40982;BME280;26708;50.304;19.028;2023-05-21T10:45:47;98615.78;;;23.20;34.21
40982;BME280;26708;50.304;19.028;2023-05-21T10:48:36;98567.88;;;23.00;33.84
40982;BME280;26708;50.304;19.028;2023-05-21T10:51:17;98616.75;;;23.36;34.00
40982;BME280;26708;50.304;19.028;2023-05-21T10:53:45;98612.78;;;23.43;33.90
40982;BME280;26708;50.304;19.028;2023-05-21T10:56:16;98594.13;;;23.26;33.94
40982;BME280;26708;50.304;19.028;2023-05-21T10:58:47;98589.16;;;23.35;34.25
40982;BME280;26708;50.304;19.028;2023-05-21T11:01:13;98599.53;;;23.41;33.43
40982;BME280;26708;50.304;19.028;2023-05-21T11:03:20;98597.00;;;23.38;32.92
40982;BME280;26708;50.304;19.028;2023-05-21T11:05:52;98614.19;;;23.50;32.32
40982;BME280;26708;50.304;19.028;2023-05-21T11:07:59;98604.63;;;23.46;33.19
40982;BME280;26708;50.304;19.028;2023-05-21T11:10:32;98609.41;;;23.56;33.81
40982;BME280;26708;50.304;19.028;2023-05-21T11:13:04;98606.72;;;23.56;33.15
40982;BME280;26708;50.304;19.028;2023-05-21T11:15:14;98585.03;;;23.45;32.53
40982;BME280;26708;50.304;19.028;2023-05-21T11:17:37;98518.22;;;23.13;32.37
40982;BME280;26708;50.304;19.028;2023-05-21T11:19:45;98464.06;;;22.77;32.85
40982;BME280;26708;50.304;19.028;2023-05-21T11:21:54;98554.84;;;23.28;33.03
40982;BME280;26708;50.304;19.028;2023-05-21T11:24:01;98602.31;;;23.55;33.83
40982;BME280;26708;50.304;19.028;2023-05-21T11:26:11;98562.25;;;23.38;33.84
40982;BME280;26708;50.304;19.028;2023-05-21T11:28:31;98545.06;;;23.27;33.08
40982;BME280;26708;50.304;19.028;2023-05-21T11:30:36;98567.19;;;23.46;32.44
40982;BME280;26708;50.304;19.028;2023-05-21T11:33:18;98601.56;;;23.69;32.29
40982;BME280;26708;50.304;19.028;2023-05-21T11:35:23;98609.59;;;23.69;31.81
40982;BME280;26708;50.304;19.028;2023-05-21T11:37:30;98610.69;;;23.65;31.71
40982;BME280;26708;50.304;19.028;2023-05-21T11:39:38;98609.41;;;23.56;31.12
40982;BME280;26708;50.304;19.028;2023-05-21T11:41:56;98592.47;;;23.56;29.70
40982;BME280;26708;50.304;19.028;2023-05-21T11:44:07;98593.44;;;23.55;29.77